sensor_id;sensor_type;location;lat;lon;timestamp;temperature;humidity
14397;DHT22;50653;47.810;13.022;2023-05-19T00:00:14;11.20;99.90
14397;DHT22;50653;47.810;13.022;2023-05-19T00:02:41;11.20;99.90
14397;DHT22;50653;47.810;13.022;2023-05-19T00:05:09;11.30;99.90
14397;DHT22;50653;47.810;13.022;2023-05-19T00:07:37;11.40;99.90
14397;DHT22;50653;47.810;13.022;2023-05-19T00:10:03;11.30;99.90
14397;DHT22;50653;47.810;13.022;2023-05-19T00:12:29;11.40;99.90
14397;DHT22;50653;47.810;13.022;2023-05-19T00:14:55;11.50;99.90
14397;DHT22;50653;47.810;13.022;2023-05-19T00:17:21;11.50;99.90
14397;DHT22;50653;47.810;13.022;2023-05-19T00:19:46;11.40;99.90
14397;DHT22;50653;47.810;13.022;2023-05-19T00:22:13;11.50;99.90
14397;DHT22;50653;47.810;13.022;2023-05-19T00:24:39;11.40;99.90
14397;DHT22;50653;47.810;13.022;2023-05-19T00:27:04;11.30;99.90
14397;DHT22;50653;47.810;13.022;2023-05-19T00:29:30;11.20;99.90
14397;DHT22;50653;47.810;13.022;2023-05-19T00:31:56;11.20;99.90
14397;DHT22;50653;47.810;13.022;2023-05-19T00:34:21;11.40;99.90
14397;DHT22;50653;47.810;13.022;2023-05-19T00:36:47;11.50;99.90
14397;DHT22;50653;47.810;13.022;2023-05-19T00:39:12;11.50;99.90
14397;DHT22;50653;47.810;13.022;2023-05-19T00:41:38;11.30;99.90
14397;DHT22;50653;47.810;13.022;2023-05-19T00:44:05;11.30;99.90
14397;DHT22;50653;47.810;13.022;2023-05-19T00:46:30;11.30;99.90
14397;DHT22;50653;47.810;13.022;2023-05-19T00:48:56;11.40;99.90
14397;DHT22;50653;47.810;13.022;2023-05-19T00:51:25;11.40;99.90
14397;DHT22;50653;47.810;13.022;2023-05-19T00:53:51;11.50;99.90
14397;DHT22;50653;47.810;13.022;2023-05-19T00:56:17;11.50;99.90
14397;DHT22;50653;47.810;13.022;2023-05-19T00:58:44;11.40;99.90
14397;DHT22;50653;47.810;13.022;2023-05-19T01:01:10;11.40;99.90
14397;DHT22;50653;47.810;13.022;2023-05-19T01:03:36;11.40;99.90
14397;DHT22;50653;47.810;13.022;2023-05-19T01:06:03;11.40;99.90
14397;DHT22;50653;47.810;13.022;2023-05-19T01:08:36;11.50;99.90
14397;DHT22;50653;47.810;13.022;2023-05-19T01:11:06;11.50;99.90
14397;DHT22;50653;47.810;13.022;2023-05-19T01:13:32;11.40;99.90
14397;DHT22;50653;47.810;13.022;2023-05-19T01:18:55;11.40;99.90
14397;DHT22;50653;47.810;13.022;2023-05-19T01:30:20;11.50;99.90
14397;DHT22;50653;47.810;13.022;2023-05-19T01:32:49;11.40;99.90
14397;DHT22;50653;47.810;13.022;2023-05-19T01:35:18;11.50;99.90
14397;DHT22;50653;47.810;13.022;2023-05-19T01:37:45;11.40;99.90
14397;DHT22;50653;47.810;13.022;2023-05-19T01:40:11;11.40;99.90
14397;DHT22;50653;47.810;13.022;2023-05-19T01:42:38;11.40;99.90
14397;DHT22;50653;47.810;13.022;2023-05-19T01:45:06;11.40;99.90
14397;DHT22;50653;47.810;13.022;2023-05-19T01:47:35;11.40;99.90
14397;DHT22;50653;47.810;13.022;2023-05-19T01:50:03;11.40;99.90
14397;DHT22;50653;47.810;13.022;2023-05-19T01:52:29;11.40;99.90
14397;DHT22;50653;47.810;13.022;2023-05-19T01:54:54;11.40;99.90
14397;DHT22;50653;47.810;13.022;2023-05-19T01:57:35;11.40;99.90
14397;DHT22;50653;47.810;13.022;2023-05-19T02:00:22;11.40;99.90
14397;DHT22;50653;47.810;13.022;2023-05-19T02:03:01;11.40;99.90
14397;DHT22;50653;47.810;13.022;2023-05-19T02:06:02;11.40;99.90
14397;DHT22;50653;47.810;13.022;2023-05-19T02:08:40;11.40;99.90
14397;DHT22;50653;47.810;13.022;2023-05-19T02:11:17;11.40;99.90
14397;DHT22;50653;47.810;13.022;2023-05-19T02:13:49;11.40;99.90
14397;DHT22;50653;47.810;13.022;2023-05-19T02:16:17;11.40;99.90
14397;DHT22;50653;47.810;13.022;2023-05-19T02:18:44;11.40;99.90
14397;DHT22;50653;47.810;13.022;2023-05-19T02:21:11;11.40;99.90
14397;DHT22;50653;47.810;13.022;2023-05-19T02:23:39;11.30;99.90
14397;DHT22;50653;47.810;13.022;2023-05-19T02:26:06;11.00;99.90
14397;DHT22;50653;47.810;13.022;2023-05-19T02:28:33;10.80;99.90
14397;DHT22;50653;47.810;13.022;2023-05-19T02:30:59;10.90;99.90
14397;DHT22;50653;47.810;13.022;2023-05-19T02:33:27;11.10;99.90
14397;DHT22;50653;47.810;13.022;2023-05-19T02:35:55;11.20;99.90
14397;DHT22;50653;47.810;13.022;2023-05-19T02:38:22;11.10;99.90
14397;DHT22;50653;47.810;13.022;2023-05-19T02:40:49;11.00;99.90
14397;DHT22;50653;47.810;13.022;2023-05-19T02:43:15;11.20;99.90
14397;DHT22;50653;47.810;13.022;2023-05-19T02:45:41;11.20;99.90
14397;DHT22;50653;47.810;13.022;2023-05-19T02:48:06;11.20;99.90
14397;DHT22;50653;47.810;13.022;2023-05-19T02:50:32;11.30;99.90
14397;DHT22;50653;47.810;13.022;2023-05-19T02:52:57;11.30;99.90
14397;DHT22;50653;47.810;13.022;2023-05-19T02:55:23;11.30;99.90
14397;DHT22;50653;47.810;13.022;2023-05-19T02:57:49;11.30;99.90
14397;DHT22;50653;47.810;13.022;2023-05-19T03:00:15;11.30;99.90
14397;DHT22;50653;47.810;13.022;2023-05-19T03:02:42;11.30;99.90
14397;DHT22;50653;47.810;13.022;2023-05-19T03:05:09;11.10;99.90
14397;DHT22;50653;47.810;13.022;2023-05-19T03:07:35;11.20;99.90
14397;DHT22;50653;47.810;13.022;2023-05-19T03:10:01;11.10;99.90
14397;DHT22;50653;47.810;13.022;2023-05-19T03:12:31;11.20;99.90
14397;DHT22;50653;47.810;13.022;2023-05-19T03:14:58;11.20;99.90
14397;DHT22;50653;47.810;13.022;2023-05-19T03:17:24;11.20;99.90
14397;DHT22;50653;47.810;13.022;2023-05-19T03:19:50;11.20;99.90
14397;DHT22;50653;47.810;13.022;2023-05-19T03:22:16;11.30;99.90
14397;DHT22;50653;47.810;13.022;2023-05-19T03:24:43;11.10;99.90
14397;DHT22;50653;47.810;13.022;2023-05-19T03:27:10;11.10;99.90
14397;DHT22;50653;47.810;13.022;2023-05-19T03:29:36;11.10;99.90
14397;DHT22;50653;47.810;13.022;2023-05-19T03:32:02;11.10;99.90
14397;DHT22;50653;47.810;13.022;2023-05-19T03:34:28;11.00;99.90
14397;DHT22;50653;47.810;13.022;2023-05-19T03:36:54;11.00;99.90
14397;DHT22;50653;47.810;13.022;2023-05-19T03:39:21;11.00;99.90
14397;DHT22;50653;47.810;13.022;2023-05-19T03:41:47;11.10;99.90
14397;DHT22;50653;47.810;13.022;2023-05-19T03:44:14;11.10;99.90
14397;DHT22;50653;47.810;13.022;2023-05-19T03:46:39;11.10;99.90
14397;DHT22;50653;47.810;13.022;2023-05-19T03:49:23;11.20;99.90
14397;DHT22;50653;47.810;13.022;2023-05-19T03:52:08;11.00;99.90
14397;DHT22;50653;47.810;13.022;2023-05-19T03:54:56;11.00;99.90
14397;DHT22;50653;47.810;13.022;2023-05-19T03:57:23;11.00;99.90
14397;DHT22;50653;47.810;13.022;2023-05-19T03:59:48;11.10;99.90
14397;DHT22;50653;47.810;13.022;2023-05-19T04:02:14;11.20;99.90
14397;DHT22;50653;47.810;13.022;2023-05-19T04:04:40;11.30;99.90
14397;DHT22;50653;47.810;13.022;2023-05-19T04:07:05;11.30;99.90
14397;DHT22;50653;47.810;13.022;2023-05-19T04:09:31;11.30;99.90
14397;DHT22;50653;47.810;13.022;2023-05-19T04:12:00;11.30;99.90
14397;DHT22;50653;47.810;13.022;2023-05-19T04:14:27;11.30;99.90
14397;DHT22;50653;47.810;13.022;2023-05-19T04:16:53;11.30;99.90
14397;DHT22;50653;47.810;13.022;2023-05-19T04:19:19;11.40;99.90
14397;DHT22;50653;47.810;13.022;2023-05-19T04:21:45;11.30;99.90
14397;DHT22;50653;47.810;13.022;2023-05-19T04:24:11;11.30;99.90
14397;DHT22;50653;47.810;13.022;2023-05-19T04:26:37;11.40;99.90
14397;DHT22;50653;47.810;13.022;2023-05-19T04:29:06;11.30;99.90
14397;DHT22;50653;47.810;13.022;2023-05-19T04:31:33;11.30;99.90
14397;DHT22;50653;47.810;13.022;2023-05-19T04:34:01;11.40;99.90
14397;DHT22;50653;47.810;13.022;2023-05-19T04:36:27;11.40;99.90
14397;DHT22;50653;47.810;13.022;2023-05-19T04:38:53;11.30;99.90
14397;DHT22;50653;47.810;13.022;2023-05-19T04:41:27;11.40;99.90
14397;DHT22;50653;47.810;13.022;2023-05-19T04:43:53;11.40;99.90
14397;DHT22;50653;47.810;13.022;2023-05-19T04:46:21;11.40;99.90
14397;DHT22;50653;47.810;13.022;2023-05-19T04:48:49;11.40;99.90
14397;DHT22;50653;47.810;13.022;2023-05-19T04:51:15;11.10;99.90
14397;DHT22;50653;47.810;13.022;2023-05-19T04:53:42;11.10;99.90
14397;DHT22;50653;47.810;13.022;2023-05-19T04:56:09;11.00;99.90
14397;DHT22;50653;47.810;13.022;2023-05-19T04:58:40;11.20;99.90
14397;DHT22;50653;47.810;13.022;2023-05-19T05:01:06;11.20;99.90
14397;DHT22;50653;47.810;13.022;2023-05-19T05:03:34;11.40;99.90
14397;DHT22;50653;47.810;13.022;2023-05-19T05:06:00;11.50;99.90
14397;DHT22;50653;47.810;13.022;2023-05-19T05:08:26;11.50;99.90
14397;DHT22;50653;47.810;13.022;2023-05-19T05:10:53;11.50;99.90
14397;DHT22;50653;47.810;13.022;2023-05-19T05:13:21;11.50;99.90
14397;DHT22;50653;47.810;13.022;2023-05-19T05:15:48;11.50;99.90
14397;DHT22;50653;47.810;13.022;2023-05-19T05:18:15;11.60;99.90
14397;DHT22;50653;47.810;13.022;2023-05-19T05:20:42;11.70;99.90
14397;DHT22;50653;47.810;13.022;2023-05-19T05:23:13;11.70;99.90
14397;DHT22;50653;47.810;13.022;2023-05-19T05:25:41;11.60;99.90
14397;DHT22;50653;47.810;13.022;2023-05-19T05:28:07;11.70;99.90
14397;DHT22;50653;47.810;13.022;2023-05-19T05:30:35;11.70;99.90
14397;DHT22;50653;47.810;13.022;2023-05-19T05:33:02;11.60;99.90
14397;DHT22;50653;47.810;13.022;2023-05-19T05:35:32;11.70;99.90
14397;DHT22;50653;47.810;13.022;2023-05-19T05:37:58;11.70;99.90
14397;DHT22;50653;47.810;13.022;2023-05-19T05:40:24;11.80;99.90
14397;DHT22;50653;47.810;13.022;2023-05-19T05:42:51;11.80;99.90
14397;DHT22;50653;47.810;13.022;2023-05-19T05:45:24;11.80;99.90
14397;DHT22;50653;47.810;13.022;2023-05-19T05:47:51;11.90;99.90
14397;DHT22;50653;47.810;13.022;2023-05-19T05:50:17;11.90;99.90
14397;DHT22;50653;47.810;13.022;2023-05-19T05:52:47;12.00;99.90
14397;DHT22;50653;47.810;13.022;2023-05-19T05:55:15;12.00;99.90
14397;DHT22;50653;47.810;13.022;2023-05-19T05:57:42;12.10;99.90
14397;DHT22;50653;47.810;13.022;2023-05-19T06:00:08;12.10;99.90
14397;DHT22;50653;47.810;13.022;2023-05-19T06:02:44;12.20;99.90
14397;DHT22;50653;47.810;13.022;2023-05-19T06:05:16;12.20;99.90
14397;DHT22;50653;47.810;13.022;2023-05-19T06:07:43;12.30;99.90
14397;DHT22;50653;47.810;13.022;2023-05-19T06:10:11;12.30;99.90
14397;DHT22;50653;47.810;13.022;2023-05-19T06:12:37;12.40;99.90
14397;DHT22;50653;47.810;13.022;2023-05-19T06:15:09;12.30;99.90
14397;DHT22;50653;47.810;13.022;2023-05-19T06:17:53;12.30;99.90
14397;DHT22;50653;47.810;13.022;2023-05-19T06:20:19;12.30;99.90
14397;DHT22;50653;47.810;13.022;2023-05-19T06:22:45;12.30;99.90
14397;DHT22;50653;47.810;13.022;2023-05-19T06:25:11;12.30;99.90
14397;DHT22;50653;47.810;13.022;2023-05-19T06:27:38;12.30;99.90
14397;DHT22;50653;47.810;13.022;2023-05-19T06:30:04;12.40;99.90
14397;DHT22;50653;47.810;13.022;2023-05-19T06:32:37;12.40;99.90
14397;DHT22;50653;47.810;13.022;2023-05-19T06:35:03;12.50;99.90
14397;DHT22;50653;47.810;13.022;2023-05-19T06:37:29;12.50;99.90
14397;DHT22;50653;47.810;13.022;2023-05-19T06:39:55;12.50;99.90
14397;DHT22;50653;47.810;13.022;2023-05-19T06:42:21;12.50;99.90
14397;DHT22;50653;47.810;13.022;2023-05-19T06:44:54;12.50;99.90
14397;DHT22;50653;47.810;13.022;2023-05-19T06:47:22;12.60;99.90
14397;DHT22;50653;47.810;13.022;2023-05-19T06:49:49;12.70;99.90
14397;DHT22;50653;47.810;13.022;2023-05-19T06:52:23;12.70;99.90
14397;DHT22;50653;47.810;13.022;2023-05-19T06:54:49;12.80;99.90
14397;DHT22;50653;47.810;13.022;2023-05-19T06:57:16;12.70;99.90
14397;DHT22;50653;47.810;13.022;2023-05-19T06:59:42;12.80;99.90
14397;DHT22;50653;47.810;13.022;2023-05-19T07:02:09;12.80;99.90
14397;DHT22;50653;47.810;13.022;2023-05-19T07:04:36;12.80;99.90
14397;DHT22;50653;47.810;13.022;2023-05-19T07:07:01;12.80;99.90
14397;DHT22;50653;47.810;13.022;2023-05-19T07:09:31;12.80;99.90
14397;DHT22;50653;47.810;13.022;2023-05-19T07:12:02;12.80;99.90
14397;DHT22;50653;47.810;13.022;2023-05-19T07:14:32;12.90;99.90
14397;DHT22;50653;47.810;13.022;2023-05-19T07:19:49;12.90;99.90
14397;DHT22;50653;47.810;13.022;2023-05-19T07:22:17;13.00;99.90
14397;DHT22;50653;47.810;13.022;2023-05-19T07:24:44;13.10;99.90
14397;DHT22;50653;47.810;13.022;2023-05-19T07:27:14;13.10;99.90
14397;DHT22;50653;47.810;13.022;2023-05-19T07:29:40;13.10;99.90
14397;DHT22;50653;47.810;13.022;2023-05-19T07:32:06;13.00;99.90
14397;DHT22;50653;47.810;13.022;2023-05-19T07:34:31;13.10;99.90
14397;DHT22;50653;47.810;13.022;2023-05-19T07:36:57;13.20;99.90
14397;DHT22;50653;47.810;13.022;2023-05-19T07:39:23;13.00;99.90
14397;DHT22;50653;47.810;13.022;2023-05-19T07:41:52;13.00;99.90
14397;DHT22;50653;47.810;13.022;2023-05-19T07:44:20;13.00;99.90
14397;DHT22;50653;47.810;13.022;2023-05-19T07:46:46;13.00;99.90
14397;DHT22;50653;47.810;13.022;2023-05-19T07:49:11;13.00;99.90
14397;DHT22;50653;47.810;13.022;2023-05-19T07:51:37;13.10;99.90
14397;DHT22;50653;47.810;13.022;2023-05-19T07:54:03;13.10;99.90
14397;DHT22;50653;47.810;13.022;2023-05-19T07:56:28;13.00;99.90
14397;DHT22;50653;47.810;13.022;2023-05-19T07:58:54;13.00;99.90
14397;DHT22;50653;47.810;13.022;2023-05-19T08:01:20;13.00;99.90
14397;DHT22;50653;47.810;13.022;2023-05-19T08:03:45;13.00;99.90
14397;DHT22;50653;47.810;13.022;2023-05-19T08:06:11;13.00;99.90
14397;DHT22;50653;47.810;13.022;2023-05-19T08:08:37;13.00;99.90
14397;DHT22;50653;47.810;13.022;2023-05-19T08:11:03;13.10;99.90
14397;DHT22;50653;47.810;13.022;2023-05-19T08:13:29;13.20;99.90
14397;DHT22;50653;47.810;13.022;2023-05-19T08:15:55;13.20;99.90
14397;DHT22;50653;47.810;13.022;2023-05-19T08:18:27;13.20;99.90
14397;DHT22;50653;47.810;13.022;2023-05-19T08:20:53;13.20;99.90
14397;DHT22;50653;47.810;13.022;2023-05-19T08:23:18;13.30;99.90
14397;DHT22;50653;47.810;13.022;2023-05-19T08:25:44;13.30;99.90
14397;DHT22;50653;47.810;13.022;2023-05-19T08:28:10;13.30;99.90
14397;DHT22;50653;47.810;13.022;2023-05-19T08:30:35;13.30;99.90
14397;DHT22;50653;47.810;13.022;2023-05-19T08:33:01;13.20;99.90
14397;DHT22;50653;47.810;13.022;2023-05-19T08:35:27;13.20;99.90
14397;DHT22;50653;47.810;13.022;2023-05-19T08:37:52;13.20;99.90
14397;DHT22;50653;47.810;13.022;2023-05-19T08:40:19;13.20;99.90
14397;DHT22;50653;47.810;13.022;2023-05-19T08:42:45;13.20;99.90
14397;DHT22;50653;47.810;13.022;2023-05-19T08:45:11;13.10;99.90
14397;DHT22;50653;47.810;13.022;2023-05-19T08:47:38;13.10;99.90
14397;DHT22;50653;47.810;13.022;2023-05-19T08:50:06;13.20;99.90
14397;DHT22;50653;47.810;13.022;2023-05-19T08:52:52;13.20;99.90
14397;DHT22;50653;47.810;13.022;2023-05-19T08:55:32;13.10;99.90
14397;DHT22;50653;47.810;13.022;2023-05-19T08:58:01;13.20;99.90
14397;DHT22;50653;47.810;13.022;2023-05-19T09:00:28;13.20;99.90
14397;DHT22;50653;47.810;13.022;2023-05-19T09:02:54;13.20;99.90
14397;DHT22;50653;47.810;13.022;2023-05-19T09:05:20;13.20;99.90
14397;DHT22;50653;47.810;13.022;2023-05-19T09:07:46;13.10;99.90
14397;DHT22;50653;47.810;13.022;2023-05-19T09:10:13;13.30;99.90
14397;DHT22;50653;47.810;13.022;2023-05-19T09:12:45;13.50;99.90
14397;DHT22;50653;47.810;13.022;2023-05-19T09:15:12;13.60;99.90
14397;DHT22;50653;47.810;13.022;2023-05-19T09:17:40;13.50;99.90
14397;DHT22;50653;47.810;13.022;2023-05-19T09:20:07;13.50;99.90
14397;DHT22;50653;47.810;13.022;2023-05-19T09:22:45;13.70;99.90
14397;DHT22;50653;47.810;13.022;2023-05-19T09:25:24;13.80;99.90
14397;DHT22;50653;47.810;13.022;2023-05-19T09:27:53;13.80;99.90
14397;DHT22;50653;47.810;13.022;2023-05-19T09:30:19;13.80;99.90
14397;DHT22;50653;47.810;13.022;2023-05-19T09:32:46;13.90;99.90
14397;DHT22;50653;47.810;13.022;2023-05-19T09:35:12;13.90;99.90
14397;DHT22;50653;47.810;13.022;2023-05-19T09:37:39;13.80;99.90
14397;DHT22;50653;47.810;13.022;2023-05-19T09:40:07;13.80;99.90
14397;DHT22;50653;47.810;13.022;2023-05-19T09:42:36;13.80;99.90
14397;DHT22;50653;47.810;13.022;2023-05-19T09:45:03;13.80;99.90
14397;DHT22;50653;47.810;13.022;2023-05-19T09:47:37;13.90;99.90
14397;DHT22;50653;47.810;13.022;2023-05-19T09:50:04;14.00;99.90
14397;DHT22;50653;47.810;13.022;2023-05-19T09:52:34;14.00;99.90
14397;DHT22;50653;47.810;13.022;2023-05-19T09:55:01;14.00;99.90
14397;DHT22;50653;47.810;13.022;2023-05-19T09:57:33;14.10;99.90
14397;DHT22;50653;47.810;13.022;2023-05-19T10:00:10;14.00;99.90
14397;DHT22;50653;47.810;13.022;2023-05-19T10:02:40;13.90;99.90
14397;DHT22;50653;47.810;13.022;2023-05-19T10:05:10;14.00;99.90
14397;DHT22;50653;47.810;13.022;2023-05-19T10:07:38;14.00;99.90
14397;DHT22;50653;47.810;13.022;2023-05-19T10:10:10;14.00;99.90
14397;DHT22;50653;47.810;13.022;2023-05-19T10:12:37;14.10;99.90
14397;DHT22;50653;47.810;13.022;2023-05-19T10:15:06;14.20;99.90
14397;DHT22;50653;47.810;13.022;2023-05-19T10:17:33;14.20;99.90
14397;DHT22;50653;47.810;13.022;2023-05-19T10:20:00;14.40;99.90
14397;DHT22;50653;47.810;13.022;2023-05-19T10:22:25;14.30;99.90
14397;DHT22;50653;47.810;13.022;2023-05-19T10:24:52;14.30;99.90
14397;DHT22;50653;47.810;13.022;2023-05-19T10:27:21;14.30;99.90
14397;DHT22;50653;47.810;13.022;2023-05-19T10:29:48;14.40;99.90
14397;DHT22;50653;47.810;13.022;2023-05-19T10:32:19;14.50;99.90
14397;DHT22;50653;47.810;13.022;2023-05-19T10:34:52;14.50;99.90
14397;DHT22;50653;47.810;13.022;2023-05-19T10:37:42;14.40;99.90
14397;DHT22;50653;47.810;13.022;2023-05-19T10:40:29;14.40;99.90
14397;DHT22;50653;47.810;13.022;2023-05-19T10:45:51;14.50;99.90
14397;DHT22;50653;47.810;13.022;2023-05-19T10:48:19;14.70;99.90
14397;DHT22;50653;47.810;13.022;2023-05-19T10:50:46;14.50;99.90
14397;DHT22;50653;47.810;13.022;2023-05-19T10:53:16;14.60;99.90
14397;DHT22;50653;47.810;13.022;2023-05-19T10:55:46;14.70;99.90
14397;DHT22;50653;47.810;13.022;2023-05-19T10:58:14;14.60;99.90
14397;DHT22;50653;47.810;13.022;2023-05-19T11:00:40;14.80;99.90
14397;DHT22;50653;47.810;13.022;2023-05-19T11:03:15;14.70;99.90
14397;DHT22;50653;47.810;13.022;2023-05-19T11:05:43;14.60;99.90
14397;DHT22;50653;47.810;13.022;2023-05-19T11:08:11;14.70;99.90
14397;DHT22;50653;47.810;13.022;2023-05-19T11:10:37;14.70;99.90
14397;DHT22;50653;47.810;13.022;2023-05-19T11:13:03;14.80;99.90
14397;DHT22;50653;47.810;13.022;2023-05-19T11:15:33;14.90;99.90
14397;DHT22;50653;47.810;13.022;2023-05-19T11:18:00;14.90;99.90
14397;DHT22;50653;47.810;13.022;2023-05-19T11:20:29;14.80;99.90
14397;DHT22;50653;47.810;13.022;2023-05-19T11:23:08;14.70;99.90
14397;DHT22;50653;47.810;13.022;2023-05-19T11:25:41;14.70;99.90
14397;DHT22;50653;47.810;13.022;2023-05-19T11:28:09;14.80;99.90
14397;DHT22;50653;47.810;13.022;2023-05-19T11:30:36;15.00;99.90
14397;DHT22;50653;47.810;13.022;2023-05-19T11:33:02;15.00;99.90
14397;DHT22;50653;47.810;13.022;2023-05-19T11:35:29;14.90;99.90
14397;DHT22;50653;47.810;13.022;2023-05-19T11:37:55;14.90;99.90
14397;DHT22;50653;47.810;13.022;2023-05-19T11:40:22;15.00;99.90
14397;DHT22;50653;47.810;13.022;2023-05-19T11:42:48;15.00;99.90
14397;DHT22;50653;47.810;13.022;2023-05-19T11:45:13;14.90;99.90
14397;DHT22;50653;47.810;13.022;2023-05-19T11:47:39;14.90;99.90
14397;DHT22;50653;47.810;13.022;2023-05-19T11:50:05;15.00;99.90
14397;DHT22;50653;47.810;13.022;2023-05-19T11:52:31;15.10;99.90
14397;DHT22;50653;47.810;13.022;2023-05-19T11:55:00;14.90;99.90
14397;DHT22;50653;47.810;13.022;2023-05-19T11:57:26;14.90;99.90
14397;DHT22;50653;47.810;13.022;2023-05-19T11:59:51;15.00;99.90
14397;DHT22;50653;47.810;13.022;2023-05-19T12:02:19;15.10;99.90
14397;DHT22;50653;47.810;13.022;2023-05-19T12:04:46;15.10;99.90
14397;DHT22;50653;47.810;13.022;2023-05-19T12:07:14;15.10;99.90
14397;DHT22;50653;47.810;13.022;2023-05-19T12:09:42;15.30;99.90
14397;DHT22;50653;47.810;13.022;2023-05-19T12:12:08;15.40;99.90
14397;DHT22;50653;47.810;13.022;2023-05-19T12:14:34;15.40;99.90
14397;DHT22;50653;47.810;13.022;2023-05-19T12:17:09;15.50;99.90
14397;DHT22;50653;47.810;13.022;2023-05-19T12:19:36;15.50;99.90
14397;DHT22;50653;47.810;13.022;2023-05-19T12:22:02;15.40;99.90
14397;DHT22;50653;47.810;13.022;2023-05-19T12:24:28;15.50;99.90
14397;DHT22;50653;47.810;13.022;2023-05-19T12:27:04;15.70;99.90
14397;DHT22;50653;47.810;13.022;2023-05-19T12:29:30;15.70;99.90
14397;DHT22;50653;47.810;13.022;2023-05-19T12:31:56;15.70;99.90
14397;DHT22;50653;47.810;13.022;2023-05-19T12:34:22;15.70;99.90
14397;DHT22;50653;47.810;13.022;2023-05-19T12:36:48;15.80;99.90
14397;DHT22;50653;47.810;13.022;2023-05-19T12:39:14;16.00;99.90
14397;DHT22;50653;47.810;13.022;2023-05-19T12:41:39;16.00;99.90
14397;DHT22;50653;47.810;13.022;2023-05-19T12:44:13;16.00;99.90
14397;DHT22;50653;47.810;13.022;2023-05-19T12:46:39;16.10;99.90
14397;DHT22;50653;47.810;13.022;2023-05-19T12:49:05;16.10;99.90
14397;DHT22;50653;47.810;13.022;2023-05-19T12:51:30;16.20;99.90
14397;DHT22;50653;47.810;13.022;2023-05-19T12:53:56;16.20;99.90
14397;DHT22;50653;47.810;13.022;2023-05-19T12:56:24;16.30;99.90
14397;DHT22;50653;47.810;13.022;2023-05-19T12:58:54;16.30;99.90
14397;DHT22;50653;47.810;13.022;2023-05-19T13:01:21;16.20;99.90
14397;DHT22;50653;47.810;13.022;2023-05-19T13:03:47;16.20;99.90
14397;DHT22;50653;47.810;13.022;2023-05-19T13:06:12;16.10;99.90
14397;DHT22;50653;47.810;13.022;2023-05-19T13:08:40;16.10;99.90
14397;DHT22;50653;47.810;13.022;2023-05-19T13:11:05;16.20;99.90
14397;DHT22;50653;47.810;13.022;2023-05-19T13:13:31;16.30;99.90
14397;DHT22;50653;47.810;13.022;2023-05-19T13:15:57;16.30;99.90
14397;DHT22;50653;47.810;13.022;2023-05-19T13:18:23;16.30;99.90
14397;DHT22;50653;47.810;13.022;2023-05-19T13:20:49;16.30;99.90
14397;DHT22;50653;47.810;13.022;2023-05-19T13:23:17;16.20;99.90
14397;DHT22;50653;47.810;13.022;2023-05-19T13:25:43;16.10;99.90
14397;DHT22;50653;47.810;13.022;2023-05-19T13:28:09;16.10;99.90
14397;DHT22;50653;47.810;13.022;2023-05-19T13:30:36;16.20;99.90
14397;DHT22;50653;47.810;13.022;2023-05-19T13:33:03;16.20;99.90
14397;DHT22;50653;47.810;13.022;2023-05-19T13:35:29;16.10;99.90
14397;DHT22;50653;47.810;13.022;2023-05-19T13:38:04;16.10;99.90
14397;DHT22;50653;47.810;13.022;2023-05-19T13:40:31;16.20;99.90
14397;DHT22;50653;47.810;13.022;2023-05-19T13:43:03;16.20;99.90
14397;DHT22;50653;47.810;13.022;2023-05-19T13:45:29;16.10;99.90
14397;DHT22;50653;47.810;13.022;2023-05-19T13:47:55;16.00;99.90
14397;DHT22;50653;47.810;13.022;2023-05-19T13:50:20;16.20;99.90
14397;DHT22;50653;47.810;13.022;2023-05-19T13:52:46;16.30;99.90
14397;DHT22;50653;47.810;13.022;2023-05-19T13:55:12;16.30;99.90
14397;DHT22;50653;47.810;13.022;2023-05-19T13:57:38;16.40;99.90
14397;DHT22;50653;47.810;13.022;2023-05-19T14:00:04;16.50;99.90
14397;DHT22;50653;47.810;13.022;2023-05-19T14:02:39;16.60;99.90
14397;DHT22;50653;47.810;13.022;2023-05-19T14:05:05;16.40;99.90
14397;DHT22;50653;47.810;13.022;2023-05-19T14:07:31;16.60;99.90
14397;DHT22;50653;47.810;13.022;2023-05-19T14:09:59;16.70;99.90
14397;DHT22;50653;47.810;13.022;2023-05-19T14:12:25;16.90;99.90
14397;DHT22;50653;47.810;13.022;2023-05-19T14:14:50;17.00;99.90
14397;DHT22;50653;47.810;13.022;2023-05-19T14:17:16;16.90;99.90
14397;DHT22;50653;47.810;13.022;2023-05-19T14:19:42;16.90;99.90
14397;DHT22;50653;47.810;13.022;2023-05-19T14:22:07;16.80;99.90
14397;DHT22;50653;47.810;13.022;2023-05-19T14:24:33;16.90;99.90
14397;DHT22;50653;47.810;13.022;2023-05-19T14:26:59;16.90;99.90
14397;DHT22;50653;47.810;13.022;2023-05-19T14:29:25;17.00;99.90
14397;DHT22;50653;47.810;13.022;2023-05-19T14:31:50;17.10;99.90
14397;DHT22;50653;47.810;13.022;2023-05-19T14:34:16;17.20;99.90
14397;DHT22;50653;47.810;13.022;2023-05-19T14:36:45;17.40;99.90
14397;DHT22;50653;47.810;13.022;2023-05-19T14:39:10;17.40;99.90
14397;DHT22;50653;47.810;13.022;2023-05-19T14:41:36;17.50;99.90
14397;DHT22;50653;47.810;13.022;2023-05-19T14:44:02;17.50;99.90
14397;DHT22;50653;47.810;13.022;2023-05-19T14:46:28;17.60;99.90
14397;DHT22;50653;47.810;13.022;2023-05-19T14:48:53;17.60;99.90
14397;DHT22;50653;47.810;13.022;2023-05-19T14:51:19;17.60;99.90
14397;DHT22;50653;47.810;13.022;2023-05-19T14:53:45;17.70;99.90
14397;DHT22;50653;47.810;13.022;2023-05-19T14:56:10;17.70;99.90
14397;DHT22;50653;47.810;13.022;2023-05-19T14:58:36;17.70;99.90
14397;DHT22;50653;47.810;13.022;2023-05-19T15:01:01;17.80;99.90
14397;DHT22;50653;47.810;13.022;2023-05-19T15:03:27;17.90;99.90
14397;DHT22;50653;47.810;13.022;2023-05-19T15:05:53;17.90;99.90
14397;DHT22;50653;47.810;13.022;2023-05-19T15:08:18;18.20;99.90
14397;DHT22;50653;47.810;13.022;2023-05-19T15:10:47;18.30;99.90
14397;DHT22;50653;47.810;13.022;2023-05-19T15:13:14;18.30;99.90
14397;DHT22;50653;47.810;13.022;2023-05-19T15:15:39;18.30;99.90
14397;DHT22;50653;47.810;13.022;2023-05-19T15:18:05;18.40;99.90
14397;DHT22;50653;47.810;13.022;2023-05-19T15:20:30;18.60;99.90
14397;DHT22;50653;47.810;13.022;2023-05-19T15:22:56;18.80;99.90
14397;DHT22;50653;47.810;13.022;2023-05-19T15:25:22;18.90;99.90
14397;DHT22;50653;47.810;13.022;2023-05-19T15:27:47;18.70;99.90
14397;DHT22;50653;47.810;13.022;2023-05-19T15:30:13;18.90;99.90
14397;DHT22;50653;47.810;13.022;2023-05-19T15:32:39;19.10;99.90
14397;DHT22;50653;47.810;13.022;2023-05-19T15:35:05;19.80;99.90